sensor_id;sensor_type;location;lat;lon;timestamp;pressure;altitude;pressure_sealevel;temperature;humidity
21988;BME280;11158;53.404;-1.510;2023-08-12T00:01:19;100234.63;;;20.33;50.33
21988;BME280;11158;53.404;-1.510;2023-08-12T00:04:05;100229.84;;;20.18;50.79
21988;BME280;11158;53.404;-1.510;2023-08-12T00:06:50;100233.75;;;20.49;49.79
21988;BME280;11158;53.404;-1.510;2023-08-12T00:09:44;100229.91;;;20.23;50.35
21988;BME280;11158;53.404;-1.510;2023-08-12T00:12:28;100225.25;;;20.19;50.87
21988;BME280;11158;53.404;-1.510;2023-08-12T00:15:13;100217.84;;;20.14;50.83
21988;BME280;11158;53.404;-1.510;2023-08-12T00:17:57;100217.88;;;19.75;52.11
21988;BME280;11158;53.404;-1.510;2023-08-12T00:20:42;100214.19;;;20.25;50.90
21988;BME280;11158;53.404;-1.510;2023-08-12T00:23:26;100214.50;;;20.07;51.33
21988;BME280;11158;53.404;-1.510;2023-08-12T00:26:10;100206.81;;;20.21;51.07
21988;BME280;11158;53.404;-1.510;2023-08-12T00:28:54;100210.13;;;20.06;51.45
21988;BME280;11158;53.404;-1.510;2023-08-12T00:31:38;100213.78;;;19.39;53.65
21988;BME280;11158;53.404;-1.510;2023-08-12T00:34:23;100209.25;;;19.44;53.51
21988;BME280;11158;53.404;-1.510;2023-08-12T00:37:07;100217.78;;;19.53;53.20
21988;BME280;11158;53.404;-1.510;2023-08-12T00:39:51;100208.03;;;19.18;54.07
21988;BME280;11158;53.404;-1.510;2023-08-12T00:42:35;100210.22;;;19.72;52.76
21988;BME280;11158;53.404;-1.510;2023-08-12T00:45:20;100206.91;;;19.87;52.13
21988;BME280;11158;53.404;-1.510;2023-08-12T00:48:04;100211.06;;;19.73;52.73
21988;BME280;11158;53.404;-1.510;2023-08-12T00:50:49;100204.97;;;19.65;52.84
21988;BME280;11158;53.404;-1.510;2023-08-12T00:53:34;100201.50;;;19.53;53.11
21988;BME280;11158;53.404;-1.510;2023-08-12T00:56:18;100191.66;;;19.64;52.98
21988;BME280;11158;53.404;-1.510;2023-08-12T00:59:05;100195.91;;;19.77;52.48
21988;BME280;11158;53.404;-1.510;2023-08-12T01:01:51;100189.25;;;19.84;52.26
21988;BME280;11158;53.404;-1.510;2023-08-12T01:04:35;100183.00;;;19.84;51.94
21988;BME280;11158;53.404;-1.510;2023-08-12T01:07:19;100182.63;;;19.75;52.62
21988;BME280;11158;53.404;-1.510;2023-08-12T01:10:04;100190.31;;;19.83;52.21
21988;BME280;11158;53.404;-1.510;2023-08-12T01:13:36;100172.66;;;19.64;52.34
21988;BME280;11158;53.404;-1.510;2023-08-12T01:16:17;100188.06;;;19.41;53.57
21988;BME280;11158;53.404;-1.510;2023-08-12T01:19:06;100188.38;;;19.62;52.74
21988;BME280;11158;53.404;-1.510;2023-08-12T01:21:55;100180.97;;;19.57;52.72
21988;BME280;11158;53.404;-1.510;2023-08-12T01:24:43;100179.56;;;19.72;52.52
21988;BME280;11158;53.404;-1.510;2023-08-12T01:27:27;100170.88;;;19.53;53.00
21988;BME280;11158;53.404;-1.510;2023-08-12T01:30:12;100171.81;;;19.41;53.52
21988;BME280;11158;53.404;-1.510;2023-08-12T01:33:10;100162.75;;;19.53;53.17
21988;BME280;11158;53.404;-1.510;2023-08-12T01:36:06;100160.75;;;19.82;52.23
21988;BME280;11158;53.404;-1.510;2023-08-12T01:38:55;100156.06;;;19.60;52.74
21988;BME280;11158;53.404;-1.510;2023-08-12T01:41:40;100150.97;;;20.03;51.48
21988;BME280;11158;53.404;-1.510;2023-08-12T01:44:25;100146.44;;;19.86;52.02
21988;BME280;11158;53.404;-1.510;2023-08-12T01:47:09;100149.97;;;19.87;52.13
21988;BME280;11158;53.404;-1.510;2023-08-12T01:49:54;100145.97;;;19.73;52.70
21988;BME280;11158;53.404;-1.510;2023-08-12T01:52:38;100145.03;;;20.06;51.65
21988;BME280;11158;53.404;-1.510;2023-08-12T01:55:22;100137.53;;;20.40;50.71
21988;BME280;11158;53.404;-1.510;2023-08-12T01:58:06;100131.13;;;20.74;50.25
21988;BME280;11158;53.404;-1.510;2023-08-12T02:00:50;100125.41;;;20.21;51.46
21988;BME280;11158;53.404;-1.510;2023-08-12T02:03:34;100132.03;;;20.08;51.60
21988;BME280;11158;53.404;-1.510;2023-08-12T02:06:18;100122.53;;;20.33;50.96
21988;BME280;11158;53.404;-1.510;2023-08-12T02:09:03;100125.97;;;20.50;50.82
21988;BME280;11158;53.404;-1.510;2023-08-12T02:11:47;100129.31;;;20.30;51.09
21988;BME280;11158;53.404;-1.510;2023-08-12T02:14:31;100127.56;;;19.75;52.08
21988;BME280;11158;53.404;-1.510;2023-08-12T02:17:15;100121.59;;;20.22;51.08
21988;BME280;11158;53.404;-1.510;2023-08-12T02:19:59;100111.91;;;20.04;51.67
21988;BME280;11158;53.404;-1.510;2023-08-12T02:22:43;100114.91;;;20.29;51.10
21988;BME280;11158;53.404;-1.510;2023-08-12T02:25:27;100122.28;;;20.07;51.34
21988;BME280;11158;53.404;-1.510;2023-08-12T02:28:11;100098.16;;;20.11;51.75
21988;BME280;11158;53.404;-1.510;2023-08-12T02:30:55;100109.78;;;19.84;52.56
21988;BME280;11158;53.404;-1.510;2023-08-12T02:33:39;100103.19;;;20.02;52.18
21988;BME280;11158;53.404;-1.510;2023-08-12T02:36:23;100089.44;;;20.58;50.79
21988;BME280;11158;53.404;-1.510;2023-08-12T02:39:09;100085.16;;;20.40;50.83
21988;BME280;11158;53.404;-1.510;2023-08-12T02:41:53;100094.13;;;20.40;50.95
21988;BME280;11158;53.404;-1.510;2023-08-12T02:44:37;100088.56;;;20.25;51.71
21988;BME280;11158;53.404;-1.510;2023-08-12T02:47:21;100089.25;;;20.15;51.74
21988;BME280;11158;53.404;-1.510;2023-08-12T02:50:05;100083.06;;;20.20;51.38
21988;BME280;11158;53.404;-1.510;2023-08-12T02:52:50;100091.81;;;19.78;53.10
21988;BME280;11158;53.404;-1.510;2023-08-12T02:55:34;100080.88;;;19.95;52.31
21988;BME280;11158;53.404;-1.510;2023-08-12T02:58:18;100079.44;;;20.09;51.89
21988;BME280;11158;53.404;-1.510;2023-08-12T03:01:02;100074.41;;;19.96;52.22
21988;BME280;11158;53.404;-1.510;2023-08-12T03:03:48;100069.25;;;19.99;52.13
21988;BME280;11158;53.404;-1.510;2023-08-12T03:06:32;100073.91;;;20.26;51.86
21988;BME280;11158;53.404;-1.510;2023-08-12T03:09:16;100063.59;;;20.28;51.52
21988;BME280;11158;53.404;-1.510;2023-08-12T03:12:02;100070.25;;;19.49;53.49
21988;BME280;11158;53.404;-1.510;2023-08-12T03:14:47;100061.16;;;19.77;53.00
21988;BME280;11158;53.404;-1.510;2023-08-12T03:17:31;100076.31;;;19.73;53.26
21988;BME280;11158;53.404;-1.510;2023-08-12T03:20:15;100065.25;;;19.80;53.17
21988;BME280;11158;53.404;-1.510;2023-08-12T03:22:59;100051.91;;;19.73;53.28
21988;BME280;11158;53.404;-1.510;2023-08-12T03:25:44;100050.91;;;20.06;52.35
21988;BME280;11158;53.404;-1.510;2023-08-12T03:28:30;100055.06;;;20.14;52.11
21988;BME280;11158;53.404;-1.510;2023-08-12T03:31:14;100048.91;;;19.97;53.34
21988;BME280;11158;53.404;-1.510;2023-08-12T03:33:59;100037.31;;;20.34;51.99
21988;BME280;11158;53.404;-1.510;2023-08-12T03:36:43;100038.25;;;20.44;51.82
21988;BME280;11158;53.404;-1.510;2023-08-12T03:39:27;100036.84;;;20.09;52.35
21988;BME280;11158;53.404;-1.510;2023-08-12T03:42:11;100031.78;;;19.69;53.84
21988;BME280;11158;53.404;-1.510;2023-08-12T03:44:55;100028.94;;;20.08;52.72
21988;BME280;11158;53.404;-1.510;2023-08-12T03:47:39;100032.75;;;19.63;54.00
21988;BME280;11158;53.404;-1.510;2023-08-12T03:50:23;100033.78;;;19.57;53.93
21988;BME280;11158;53.404;-1.510;2023-08-12T03:53:07;100033.44;;;19.70;54.06
21988;BME280;11158;53.404;-1.510;2023-08-12T03:55:52;100035.66;;;19.34;54.93
21988;BME280;11158;53.404;-1.510;2023-08-12T03:58:36;100038.56;;;19.50;54.61
21988;BME280;11158;53.404;-1.510;2023-08-12T04:01:20;100034.66;;;19.40;54.97
21988;BME280;11158;53.404;-1.510;2023-08-12T04:04:05;100035.78;;;19.44;54.75
21988;BME280;11158;53.404;-1.510;2023-08-12T04:06:49;100026.13;;;19.54;54.66
21988;BME280;11158;53.404;-1.510;2023-08-12T04:09:37;100024.28;;;19.54;54.72
21988;BME280;11158;53.404;-1.510;2023-08-12T04:12:21;100030.19;;;19.29;55.40
21988;BME280;11158;53.404;-1.510;2023-08-12T04:15:05;100033.34;;;19.43;55.17
21988;BME280;11158;53.404;-1.510;2023-08-12T04:17:50;100020.34;;;19.89;53.96
21988;BME280;11158;53.404;-1.510;2023-08-12T04:20:37;100019.38;;;20.27;52.49
21988;BME280;11158;53.404;-1.510;2023-08-12T04:23:21;100025.41;;;19.80;54.07
21988;BME280;11158;53.404;-1.510;2023-08-12T04:26:05;100033.03;;;20.11;53.03
21988;BME280;11158;53.404;-1.510;2023-08-12T04:28:50;100020.75;;;20.30;52.69
21988;BME280;11158;53.404;-1.510;2023-08-12T04:31:35;100018.28;;;20.28;53.01
21988;BME280;11158;53.404;-1.510;2023-08-12T04:34:19;100017.91;;;20.47;52.60
21988;BME280;11158;53.404;-1.510;2023-08-12T04:37:03;100016.53;;;20.44;52.35
21988;BME280;11158;53.404;-1.510;2023-08-12T04:39:47;100006.56;;;20.55;51.95
21988;BME280;11158;53.404;-1.510;2023-08-12T04:42:31;100007.56;;;20.76;51.49
21988;BME280;11158;53.404;-1.510;2023-08-12T04:45:15;99994.81;;;20.82;51.51
21988;BME280;11158;53.404;-1.510;2023-08-12T04:47:59;100002.84;;;21.04;50.86
21988;BME280;11158;53.404;-1.510;2023-08-12T04:50:44;100008.00;;;20.63;52.31
21988;BME280;11158;53.404;-1.510;2023-08-12T04:53:28;99999.09;;;20.67;52.38
21988;BME280;11158;53.404;-1.510;2023-08-12T04:56:13;100005.50;;;20.56;52.98
21988;BME280;11158;53.404;-1.510;2023-08-12T04:58:57;99998.13;;;20.89;52.03
21988;BME280;11158;53.404;-1.510;2023-08-12T05:01:41;99986.22;;;21.43;50.46
21988;BME280;11158;53.404;-1.510;2023-08-12T05:04:25;99993.22;;;21.39;50.78
21988;BME280;11158;53.404;-1.510;2023-08-12T05:07:09;99997.28;;;21.36;50.50
21988;BME280;11158;53.404;-1.510;2023-08-12T05:09:54;100003.25;;;22.11;49.28
21988;BME280;11158;53.404;-1.510;2023-08-12T05:12:38;99989.13;;;22.25;48.57
21988;BME280;11158;53.404;-1.510;2023-08-12T05:15:22;99992.13;;;22.64;47.46
21988;BME280;11158;53.404;-1.510;2023-08-12T05:18:07;99991.03;;;22.70;47.77
21988;BME280;11158;53.404;-1.510;2023-08-12T05:20:52;99983.91;;;21.98;49.06
21988;BME280;11158;53.404;-1.510;2023-08-12T05:23:37;99978.25;;;22.25;48.61
21988;BME280;11158;53.404;-1.510;2023-08-12T05:26:20;99973.28;;;22.01;49.14
21988;BME280;11158;53.404;-1.510;2023-08-12T05:29:04;99972.44;;;21.70;50.05
21988;BME280;11158;53.404;-1.510;2023-08-12T05:31:48;99974.38;;;22.10;49.17
21988;BME280;11158;53.404;-1.510;2023-08-12T05:34:32;99973.78;;;21.67;50.06
21988;BME280;11158;53.404;-1.510;2023-08-12T05:37:16;99967.25;;;21.68;50.36
21988;BME280;11158;53.404;-1.510;2023-08-12T05:40:00;99970.34;;;22.23;49.21
21988;BME280;11158;53.404;-1.510;2023-08-12T05:42:45;99956.16;;;22.62;48.13
21988;BME280;11158;53.404;-1.510;2023-08-12T05:45:29;99950.72;;;23.97;44.86
21988;BME280;11158;53.404;-1.510;2023-08-12T05:48:14;99953.78;;;23.86;45.08
21988;BME280;11158;53.404;-1.510;2023-08-12T05:50:58;99934.84;;;24.34;43.94
21988;BME280;11158;53.404;-1.510;2023-08-12T05:53:42;99943.19;;;23.79;44.86
21988;BME280;11158;53.404;-1.510;2023-08-12T05:56:26;99948.44;;;22.95;47.19
21988;BME280;11158;53.404;-1.510;2023-08-12T05:59:10;99940.88;;;22.71;47.29
21988;BME280;11158;53.404;-1.510;2023-08-12T06:01:54;99925.00;;;24.38;44.00
21988;BME280;11158;53.404;-1.510;2023-08-12T06:04:38;99923.84;;;24.15;44.39
21988;BME280;11158;53.404;-1.510;2023-08-12T06:07:23;99920.94;;;24.88;42.51
21988;BME280;11158;53.404;-1.510;2023-08-12T06:10:07;99922.34;;;23.98;44.91
21988;BME280;11158;53.404;-1.510;2023-08-12T06:12:51;99931.66;;;23.42;45.59
21988;BME280;11158;53.404;-1.510;2023-08-12T06:15:35;99943.09;;;22.49;48.31
21988;BME280;11158;53.404;-1.510;2023-08-12T06:18:20;99941.44;;;21.96;49.84
21988;BME280;11158;53.404;-1.510;2023-08-12T06:21:04;99944.69;;;21.68;50.45
21988;BME280;11158;53.404;-1.510;2023-08-12T06:23:48;99952.59;;;21.85;50.27
21988;BME280;11158;53.404;-1.510;2023-08-12T06:26:32;99953.72;;;21.99;49.90
21988;BME280;11158;53.404;-1.510;2023-08-12T06:29:17;99954.94;;;21.45;51.30
21988;BME280;11158;53.404;-1.510;2023-08-12T06:32:01;99953.41;;;21.80;50.39
21988;BME280;11158;53.404;-1.510;2023-08-12T06:34:45;99944.69;;;21.73;50.31
21988;BME280;11158;53.404;-1.510;2023-08-12T06:37:29;99946.19;;;21.38;52.02
21988;BME280;11158;53.404;-1.510;2023-08-12T06:40:12;99942.59;;;21.17;52.32
21988;BME280;11158;53.404;-1.510;2023-08-12T06:42:57;99942.50;;;21.65;51.38
21988;BME280;11158;53.404;-1.510;2023-08-12T06:45:41;99946.78;;;21.40;51.83
21988;BME280;11158;53.404;-1.510;2023-08-12T06:48:25;99950.22;;;21.20;52.57
21988;BME280;11158;53.404;-1.510;2023-08-12T06:51:09;99945.59;;;20.68;53.81
21988;BME280;11158;53.404;-1.510;2023-08-12T06:53:56;99963.31;;;20.81;53.97
21988;BME280;11158;53.404;-1.510;2023-08-12T06:56:40;99955.59;;;20.57;54.24
21988;BME280;11158;53.404;-1.510;2023-08-12T06:59:24;99957.34;;;20.41;55.09
21988;BME280;11158;53.404;-1.510;2023-08-12T07:02:08;99955.88;;;20.28;55.43
21988;BME280;11158;53.404;-1.510;2023-08-12T07:04:53;99955.97;;;20.76;54.12
21988;BME280;11158;53.404;-1.510;2023-08-12T07:07:36;99950.50;;;21.24;52.82
21988;BME280;11158;53.404;-1.510;2023-08-12T07:10:21;99956.81;;;20.82;54.51
21988;BME280;11158;53.404;-1.510;2023-08-12T07:13:05;99954.41;;;20.90;54.39
21988;BME280;11158;53.404;-1.510;2023-08-12T07:15:49;99945.31;;;20.64;54.46
21988;BME280;11158;53.404;-1.510;2023-08-12T07:18:33;99942.91;;;21.26;52.79
21988;BME280;11158;53.404;-1.510;2023-08-12T07:21:17;99947.28;;;21.37;52.88
21988;BME280;11158;53.404;-1.510;2023-08-12T07:24:01;99943.56;;;21.59;52.15
21988;BME280;11158;53.404;-1.510;2023-08-12T07:26:45;99948.47;;;21.67;51.74
21988;BME280;11158;53.404;-1.510;2023-08-12T07:29:29;99947.16;;;21.80;51.47
21988;BME280;11158;53.404;-1.510;2023-08-12T07:32:13;99942.56;;;22.26;50.59
21988;BME280;11158;53.404;-1.510;2023-08-12T07:34:57;99933.28;;;21.96;51.71
21988;BME280;11158;53.404;-1.510;2023-08-12T07:37:41;99935.75;;;22.03;52.77
21988;BME280;11158;53.404;-1.510;2023-08-12T07:40:26;99928.97;;;22.52;51.11
21988;BME280;11158;53.404;-1.510;2023-08-12T07:43:10;99931.66;;;22.47;51.00
21988;BME280;11158;53.404;-1.510;2023-08-12T07:45:54;99920.75;;;22.72;50.27
21988;BME280;11158;53.404;-1.510;2023-08-12T07:48:38;99913.09;;;23.45;48.46
21988;BME280;11158;53.404;-1.510;2023-08-12T07:51:22;99908.25;;;22.51;50.71
21988;BME280;11158;53.404;-1.510;2023-08-12T07:54:06;99912.84;;;22.66;50.31
21988;BME280;11158;53.404;-1.510;2023-08-12T07:56:50;99909.81;;;22.77;49.63
21988;BME280;11158;53.404;-1.510;2023-08-12T07:59:36;99912.75;;;22.96;49.70
21988;BME280;11158;53.404;-1.510;2023-08-12T08:02:20;99892.47;;;23.28;48.27
21988;BME280;11158;53.404;-1.510;2023-08-12T08:05:05;99898.28;;;24.00;46.97
21988;BME280;11158;53.404;-1.510;2023-08-12T08:07:49;99898.41;;;23.85;47.16
21988;BME280;11158;53.404;-1.510;2023-08-12T08:10:33;99900.13;;;24.05;47.03
21988;BME280;11158;53.404;-1.510;2023-08-12T08:13:17;99890.88;;;23.61;47.95
21988;BME280;11158;53.404;-1.510;2023-08-12T08:16:01;99892.81;;;23.61;47.66
21988;BME280;11158;53.404;-1.510;2023-08-12T08:18:46;99890.59;;;23.24;47.85
21988;BME280;11158;53.404;-1.510;2023-08-12T08:21:30;99901.56;;;22.93;48.81
21988;BME280;11158;53.404;-1.510;2023-08-12T08:24:14;99894.09;;;23.34;47.86
21988;BME280;11158;53.404;-1.510;2023-08-12T08:26:58;99891.16;;;23.20;48.30
21988;BME280;11158;53.404;-1.510;2023-08-12T08:29:42;99883.78;;;23.66;47.40
21988;BME280;11158;53.404;-1.510;2023-08-12T08:32:26;99887.22;;;23.42;48.01
21988;BME280;11158;53.404;-1.510;2023-08-12T08:35:10;99890.72;;;22.88;48.97
21988;BME280;11158;53.404;-1.510;2023-08-12T08:37:54;99882.69;;;22.31;50.51
21988;BME280;11158;53.404;-1.510;2023-08-12T08:40:38;99877.09;;;22.83;50.13
21988;BME280;11158;53.404;-1.510;2023-08-12T08:43:23;99870.31;;;23.40;48.61
21988;BME280;11158;53.404;-1.510;2023-08-12T08:46:10;99870.78;;;22.92;48.95
21988;BME280;11158;53.404;-1.510;2023-08-12T08:48:58;99862.63;;;23.47;48.30
21988;BME280;11158;53.404;-1.510;2023-08-12T08:51:43;99873.53;;;23.47;47.68
21988;BME280;11158;53.404;-1.510;2023-08-12T08:54:30;99874.91;;;23.45;47.80
21988;BME280;11158;53.404;-1.510;2023-08-12T08:57:15;99871.47;;;23.68;47.20
21988;BME280;11158;53.404;-1.510;2023-08-12T08:59:59;99873.25;;;22.99;48.93
21988;BME280;11158;53.404;-1.510;2023-08-12T09:02:46;99874.88;;;23.50;47.36
21988;BME280;11158;53.404;-1.510;2023-08-12T09:05:31;99880.31;;;23.94;46.84
21988;BME280;11158;53.404;-1.510;2023-08-12T09:08:16;99872.44;;;24.46;45.57
21988;BME280;11158;53.404;-1.510;2023-08-12T09:11:02;99878.09;;;25.03;44.21
21988;BME280;11158;53.404;-1.510;2023-08-12T09:13:47;99874.66;;;24.73;44.46
21988;BME280;11158;53.404;-1.510;2023-08-12T09:16:32;99875.25;;;24.12;45.80
21988;BME280;11158;53.404;-1.510;2023-08-12T09:19:16;99867.91;;;25.33;43.36
21988;BME280;11158;53.404;-1.510;2023-08-12T09:22:04;99874.13;;;24.71;43.82
21988;BME280;11158;53.404;-1.510;2023-08-12T09:24:56;99876.69;;;24.33;44.96
21988;BME280;11158;53.404;-1.510;2023-08-12T09:27:41;99881.28;;;24.67;44.05
21988;BME280;11158;53.404;-1.510;2023-08-12T09:30:29;99880.00;;;24.83;43.82
21988;BME280;11158;53.404;-1.510;2023-08-12T09:33:14;99887.38;;;24.59;44.48
21988;BME280;11158;53.404;-1.510;2023-08-12T09:35:59;99875.50;;;24.69;44.32
21988;BME280;11158;53.404;-1.510;2023-08-12T09:38:44;99873.25;;;24.52;44.84
21988;BME280;11158;53.404;-1.510;2023-08-12T09:41:28;99877.53;;;24.58;44.83
21988;BME280;11158;53.404;-1.510;2023-08-12T09:44:13;99871.44;;;24.42;45.31
21988;BME280;11158;53.404;-1.510;2023-08-12T09:46:57;99866.47;;;24.49;45.26
21988;BME280;11158;53.404;-1.510;2023-08-12T09:49:42;99875.41;;;24.55;44.79
21988;BME280;11158;53.404;-1.510;2023-08-12T09:52:27;99870.75;;;24.55;45.11
21988;BME280;11158;53.404;-1.510;2023-08-12T09:55:11;99857.41;;;24.54;44.87
21988;BME280;11158;53.404;-1.510;2023-08-12T09:57:59;99856.97;;;24.65;44.57
21988;BME280;11158;53.404;-1.510;2023-08-12T10:00:44;99851.63;;;24.79;44.52
21988;BME280;11158;53.404;-1.510;2023-08-12T10:03:30;99854.75;;;24.92;44.06
21988;BME280;11158;53.404;-1.510;2023-08-12T10:06:17;99846.78;;;24.71;44.78
21988;BME280;11158;53.404;-1.510;2023-08-12T10:09:01;99857.84;;;24.85;44.68
21988;BME280;11158;53.404;-1.510;2023-08-12T10:11:46;99857.41;;;24.97;44.52
21988;BME280;11158;53.404;-1.510;2023-08-12T10:14:32;99856.53;;;24.29;45.88
21988;BME280;11158;53.404;-1.510;2023-08-12T10:17:17;99865.91;;;24.95;44.38
21988;BME280;11158;53.404;-1.510;2023-08-12T10:20:04;99864.22;;;24.99;44.49
21988;BME280;11158;53.404;-1.510;2023-08-12T10:22:49;99862.16;;;25.86;42.79
21988;BME280;11158;53.404;-1.510;2023-08-12T10:25:35;99862.03;;;24.77;44.48
21988;BME280;11158;53.404;-1.510;2023-08-12T10:28:21;99854.91;;;25.43;43.88
21988;BME280;11158;53.404;-1.510;2023-08-12T10:31:06;99848.91;;;25.41;43.05
21988;BME280;11158;53.404;-1.510;2023-08-12T10:33:51;99844.44;;;25.64;42.83
21988;BME280;11158;53.404;-1.510;2023-08-12T10:36:41;99852.53;;;26.21;42.18
21988;BME280;11158;53.404;-1.510;2023-08-12T10:39:29;99840.28;;;25.67;42.27
21988;BME280;11158;53.404;-1.510;2023-08-12T10:42:46;99845.22;;;25.84;42.71
21988;BME280;11158;53.404;-1.510;2023-08-12T10:45:47;99842.56;;;25.79;42.75
21988;BME280;11158;53.404;-1.510;2023-08-12T10:48:59;99848.56;;;25.81;42.00
21988;BME280;11158;53.404;-1.510;2023-08-12T10:54:31;99831.34;;;26.27;41.40
21988;BME280;11158;53.404;-1.510;2023-08-12T10:57:16;99837.59;;;26.13;41.27
21988;BME280;11158;53.404;-1.510;2023-08-12T11:00:00;99827.06;;;25.17;43.62
21988;BME280;11158;53.404;-1.510;2023-08-12T11:02:52;99833.09;;;24.76;44.72
21988;BME280;11158;53.404;-1.510;2023-08-12T11:05:37;99822.03;;;24.86;44.85
21988;BME280;11158;53.404;-1.510;2023-08-12T11:08:26;99814.91;;;25.80;43.73
21988;BME280;11158;53.404;-1.510;2023-08-12T11:11:22;99813.91;;;25.57;43.93
21988;BME280;11158;53.404;-1.510;2023-08-12T11:14:13;99802.69;;;25.02;44.46
21988;BME280;11158;53.404;-1.510;2023-08-12T11:16:58;99809.84;;;24.01;46.81
21988;BME280;11158;53.404;-1.510;2023-08-12T11:19:46;99809.97;;;23.86;47.19
21988;BME280;11158;53.404;-1.510;2023-08-12T11:22:33;99818.44;;;24.14;47.20
21988;BME280;11158;53.404;-1.510;2023-08-12T11:25:19;99816.69;;;24.76;44.95
21988;BME280;11158;53.404;-1.510;2023-08-12T11:28:04;99825.63;;;24.82;45.42
21988;BME280;11158;53.404;-1.510;2023-08-12T11:30:48;99815.56;;;24.77;45.25
21988;BME280;11158;53.404;-1.510;2023-08-12T11:33:33;99827.75;;;25.47;44.67
21988;BME280;11158;53.404;-1.510;2023-08-12T11:36:17;99813.28;;;26.26;42.82
21988;BME280;11158;53.404;-1.510;2023-08-12T11:39:01;99823.59;;;24.44;46.42
21988;BME280;11158;53.404;-1.510;2023-08-12T11:41:46;99815.06;;;24.75;46.15
21988;BME280;11158;53.404;-1.510;2023-08-12T11:44:30;99808.00;;;25.12;45.75
21988;BME280;11158;53.404;-1.510;2023-08-12T11:47:14;99810.19;;;25.67;44.49
21988;BME280;11158;53.404;-1.510;2023-08-12T11:49:58;99810.41;;;24.76;45.59
21988;BME280;11158;53.404;-1.510;2023-08-12T11:52:42;99795.47;;;23.91;47.87
21988;BME280;11158;53.404;-1.510;2023-08-12T11:55:28;99793.84;;;23.90;48.16
21988;BME280;11158;53.404;-1.510;2023-08-12T11:58:14;99798.81;;;24.12;46.82
21988;BME280;11158;53.404;-1.510;2023-08-12T12:01:02;99814.09;;;24.13;46.88
21988;BME280;11158;53.404;-1.510;2023-08-12T12:03:51;99804.63;;;24.29;47.03
21988;BME280;11158;53.404;-1.510;2023-08-12T12:06:54;99797.84;;;24.27;46.79
21988;BME280;11158;53.404;-1.510;2023-08-12T12:09:57;99810.84;;;24.11;47.34
21988;BME280;11158;53.404;-1.510;2023-08-12T12:13:01;99822.19;;;25.14;46.67
21988;BME280;11158;53.404;-1.510;2023-08-12T12:16:10;99840.91;;;25.26;49.15
21988;BME280;11158;53.404;-1.510;2023-08-12T12:19:22;99848.47;;;24.14;52.08
21988;BME280;11158;53.404;-1.510;2023-08-12T12:22:31;99846.38;;;24.06;54.65
21988;BME280;11158;53.404;-1.510;2023-08-12T12:25:17;99854.88;;;23.20;57.93
21988;BME280;11158;53.404;-1.510;2023-08-12T12:28:23;99840.75;;;23.57;56.69
21988;BME280;11158;53.404;-1.510;2023-08-12T12:31:08;99846.19;;;23.13;58.39
21988;BME280;11158;53.404;-1.510;2023-08-12T12:34:07;99837.75;;;23.93;56.89
21988;BME280;11158;53.404;-1.510;2023-08-12T12:37:15;99834.06;;;24.08;55.10
21988;BME280;11158;53.404;-1.510;2023-08-12T12:40:18;99840.78;;;24.45;53.21
21988;BME280;11158;53.404;-1.510;2023-08-12T12:43:17;99831.38;;;25.23;51.65
21988;BME280;11158;53.404;-1.510;2023-08-12T12:46:10;99831.53;;;24.41;50.94
21988;BME280;11158;53.404;-1.510;2023-08-12T12:49:13;99832.41;;;25.46;49.18
21988;BME280;11158;53.404;-1.510;2023-08-12T12:52:17;99814.28;;;25.83;47.22
21988;BME280;11158;53.404;-1.510;2023-08-12T12:55:20;99826.31;;;25.68;48.41
21988;BME280;11158;53.404;-1.510;2023-08-12T12:58:10;99829.34;;;26.32;46.63
21988;BME280;11158;53.404;-1.510;2023-08-12T13:01:13;99833.00;;;26.42;46.34
21988;BME280;11158;53.404;-1.510;2023-08-12T13:04:16;99831.38;;;26.82;44.31
21988;BME280;11158;53.404;-1.510;2023-08-12T13:07:01;99843.91;;;26.14;45.97
21988;BME280;11158;53.404;-1.510;2023-08-12T13:09:44;99842.88;;;26.10;45.75
21988;BME280;11158;53.404;-1.510;2023-08-12T13:12:29;99837.59;;;25.48;50.36
21988;BME280;11158;53.404;-1.510;2023-08-12T13:15:13;99838.88;;;24.21;52.41
21988;BME280;11158;53.404;-1.510;2023-08-12T13:17:58;99830.66;;;25.69;49.77
21988;BME280;11158;53.404;-1.510;2023-08-12T13:20:43;99823.50;;;25.74;47.85
21988;BME280;11158;53.404;-1.510;2023-08-12T13:23:27;99818.81;;;25.41;48.98
21988;BME280;11158;53.404;-1.510;2023-08-12T13:26:12;99815.94;;;24.71;49.21
21988;BME280;11158;53.404;-1.510;2023-08-12T13:29:15;99810.88;;;24.59;49.67
21988;BME280;11158;53.404;-1.510;2023-08-12T13:32:18;99799.28;;;25.48;47.74
21988;BME280;11158;53.404;-1.510;2023-08-12T13:35:22;99799.19;;;25.53;46.72
21988;BME280;11158;53.404;-1.510;2023-08-12T13:38:19;99800.09;;;26.00;45.23
21988;BME280;11158;53.404;-1.510;2023-08-12T13:41:22;99794.94;;;26.40;43.62
21988;BME280;11158;53.404;-1.510;2023-08-12T13:44:26;99801.44;;;26.72;43.20
21988;BME280;11158;53.404;-1.510;2023-08-12T13:47:13;99800.09;;;26.00;44.63
21988;BME280;11158;53.404;-1.510;2023-08-12T13:50:12;99794.19;;;25.41;45.52
21988;BME280;11158;53.404;-1.510;2023-08-12T13:52:57;99795.97;;;26.72;43.59
21988;BME280;11158;53.404;-1.510;2023-08-12T13:55:42;99783.94;;;27.32;42.31
21988;BME280;11158;53.404;-1.510;2023-08-12T13:58:26;99780.22;;;26.36;43.70
21988;BME280;11158;53.404;-1.510;2023-08-12T14:01:10;99782.13;;;25.61;45.27
21988;BME280;11158;53.404;-1.510;2023-08-12T14:03:54;99778.09;;;26.33;43.55
21988;BME280;11158;53.404;-1.510;2023-08-12T14:06:38;99774.13;;;26.11;43.51
21988;BME280;11158;53.404;-1.510;2023-08-12T14:09:24;99784.38;;;25.73;44.43
21988;BME280;11158;53.404;-1.510;2023-08-12T14:12:08;99780.97;;;25.29;44.64
21988;BME280;11158;53.404;-1.510;2023-08-12T14:14:52;99784.97;;;26.17;43.67
21988;BME280;11158;53.404;-1.510;2023-08-12T14:17:37;99783.50;;;27.02;41.78
21988;BME280;11158;53.404;-1.510;2023-08-12T14:20:21;99784.72;;;27.10;42.16
21988;BME280;11158;53.404;-1.510;2023-08-12T14:23:05;99783.31;;;26.99;41.47
21988;BME280;11158;53.404;-1.510;2023-08-12T14:25:49;99796.66;;;26.36;43.13
21988;BME280;11158;53.404;-1.510;2023-08-12T14:28:33;99799.19;;;26.46;42.78